Time;durP1;ratioP1;P1;durP2;ratioP2;P2;SDS_P1;SDS_P2;PMS_P1;PMS_P2;Temp;Humidity;BMP_temperature;BMP_pressure;BME280_temperature;BME280_humidity;BME280_pressure;Samples;Min_cycle;Max_cycle;Signal;HPM_P1;HPM_P2
2021/05/08 00:03:46;;;;;;;4.90;2.10;;;11.20;47.10;;;;;;10179555;27;20059;-58
2021/05/08 00:08:37;;;;;;;2.63;1.90;;;11.10;47.40;;;;;;10176082;27;21262;-55
2021/05/08 00:13:28;;;;;;;3.33;1.83;;;11.10;47.80;;;;;;10189591;27;20020;-56
2021/05/08 00:18:19;;;;;;;2.13;1.55;;;11.00;48.10;;;;;;10171681;27;20449;-54
2021/05/08 00:23:10;;;;;;;2.50;1.88;;;10.90;48.30;;;;;;10178927;27;20024;-57
2021/05/08 00:28:00;;;;;;;3.92;2.17;;;10.70;48.90;;;;;;10177153;27;20433;-56
2021/05/08 00:32:51;;;;;;;3.33;1.80;;;10.70;49.30;;;;;;10182542;27;20023;-55
2021/05/08 00:37:43;;;;;;;4.68;2.75;;;10.60;49.60;;;;;;10189489;27;20493;-60
2021/05/08 00:42:34;;;;;;;3.00;2.20;;;10.70;49.80;;;;;;10175867;27;20038;-58
2021/05/08 00:47:25;;;;;;;3.25;2.03;;;10.60;50.10;;;;;;10177447;27;20571;-56
2021/05/08 00:52:16;;;;;;;2.00;1.80;;;10.50;50.60;;;;;;10158078;27;20083;-55
2021/05/08 00:57:07;;;;;;;4.18;2.15;;;10.50;50.80;;;;;;10156320;27;20367;-54
2021/05/08 01:01:58;;;;;;;6.63;2.60;;;10.50;51.00;;;;;;10176437;27;20077;-59
2021/05/08 01:06:49;;;;;;;6.95;2.15;;;10.40;51.60;;;;;;10168475;27;20108;-58
2021/05/08 01:11:40;;;;;;;4.50;2.17;;;10.40;51.70;;;;;;10157954;27;20505;-55
2021/05/08 01:16:31;;;;;;;3.92;2.17;;;10.50;51.90;;;;;;10153120;27;20578;-58
2021/05/08 01:21:22;;;;;;;5.50;2.55;;;10.50;52.10;;;;;;10157969;27;20031;-56
2021/05/08 01:26:13;;;;;;;3.95;2.38;;;10.40;52.50;;;;;;10168682;27;20054;-58
2021/05/08 01:31:04;;;;;;;5.00;2.13;;;10.40;52.80;;;;;;10159177;27;20118;-54
2021/05/08 01:35:55;;;;;;;3.08;2.10;;;10.40;52.90;;;;;;10166317;27;20031;-52
2021/05/08 01:40:45;;;;;;;3.95;2.13;;;10.20;53.40;;;;;;10157667;27;20486;-52
2021/05/08 01:45:36;;;;;;;4.82;2.38;;;10.30;53.60;;;;;;10146516;28;20051;-56
2021/05/08 01:50:27;;;;;;;2.85;2.03;;;10.20;54.60;;;;;;10174894;27;20032;-54
2021/05/08 01:55:21;;;;;;;3.45;2.05;;;10.10;54.00;;;;;;10174905;27;20031;-56
2021/05/08 02:00:17;;;;;;;2.92;1.98;;;10.10;54.20;;;;;;10181540;27;20031;-56
2021/05/08 02:05:08;;;;;;;3.60;2.00;;;10.00;54.40;;;;;;10170003;27;20031;-57
2021/05/08 02:09:59;;;;;;;4.85;2.10;;;10.00;54.70;;;;;;10168049;27;20039;-56
2021/05/08 02:14:49;;;;;;;2.80;1.80;;;9.90;54.80;;;;;;10168138;27;20428;-58
2021/05/08 02:19:40;;;;;;;2.05;1.45;;;9.70;55.10;;;;;;10161043;27;20038;-57
2021/05/08 02:24:31;;;;;;;2.63;1.85;;;9.60;55.40;;;;;;10174970;28;20040;-54
2021/05/08 02:29:21;;;;;;;4.32;1.52;;;9.60;55.00;;;;;;10170737;28;20085;-52
2021/05/08 02:34:12;;;;;;;2.67;1.77;;;9.60;55.50;;;;;;10172362;28;20042;-55
2021/05/08 02:39:03;;;;;;;2.97;1.77;;;9.40;55.80;;;;;;10180117;27;20031;-57
2021/05/08 02:43:54;;;;;;;3.03;2.05;;;9.30;55.90;;;;;;10188339;27;20276;-58
2021/05/08 02:48:45;;;;;;;3.40;1.80;;;9.40;56.20;;;;;;10175809;27;20062;-59
2021/05/08 02:53:35;;;;;;;4.50;1.92;;;9.30;56.30;;;;;;10177568;27;20024;-59
2021/05/08 02:58:26;;;;;;;2.00;1.77;;;9.30;56.60;;;;;;10162348;27;22089;-60
2021/05/08 03:03:17;;;;;;;2.70;2.10;;;9.30;56.50;;;;;;10186765;27;20632;-58
2021/05/08 03:08:07;;;;;;;2.40;1.85;;;9.20;57.10;;;;;;10177742;27;20580;-59
2021/05/08 03:12:58;;;;;;;2.97;2.30;;;9.10;57.30;;;;;;10176319;27;20574;-55
2021/05/08 03:17:49;;;;;;;3.85;1.75;;;9.00;57.60;;;;;;10184680;27;20020;-56
2021/05/08 03:22:40;;;;;;;3.67;1.85;;;8.90;57.90;;;;;;10176591;27;20524;-56
2021/05/08 03:27:30;;;;;;;3.78;2.25;;;8.90;58.00;;;;;;10179897;27;20075;-55
2021/05/08 03:32:21;;;;;;;2.65;1.95;;;8.90;58.30;;;;;;10182607;27;20991;-58
2021/05/08 03:37:12;;;;;;;2.10;1.70;;;8.90;58.60;;;;;;10183947;27;20031;-56
2021/05/08 03:42:03;;;;;;;2.72;2.40;;;8.80;58.90;;;;;;10188546;27;20562;-55
2021/05/08 03:46:53;;;;;;;3.70;1.95;;;8.80;59.10;;;;;;10172250;27;20150;-58
2021/05/08 03:51:44;;;;;;;3.17;1.80;;;8.70;59.50;;;;;;10185345;27;20415;-55
2021/05/08 03:56:36;;;;;;;2.63;1.85;;;8.50;59.80;;;;;;10175013;27;20092;-57
2021/05/08 04:01:26;;;;;;;4.32;2.13;;;8.50;59.90;;;;;;10184389;27;20110;-53
2021/05/08 04:06:17;;;;;;;3.08;1.85;;;8.60;59.80;;;;;;10174230;27;20545;-55
2021/05/08 04:11:08;;;;;;;2.72;2.10;;;8.60;59.80;;;;;;10174170;27;20472;-58
2021/05/08 04:15:59;;;;;;;2.28;1.92;;;8.50;60.00;;;;;;10180450;27;20038;-54
2021/05/08 04:20:49;;;;;;;4.53;2.45;;;8.60;60.10;;;;;;10178153;27;20427;-56
2021/05/08 04:25:41;;;;;;;3.45;1.90;;;8.60;60.30;;;;;;10172219;27;20566;-54
2021/05/08 04:30:32;;;;;;;3.15;1.45;;;8.60;60.30;;;;;;10172946;27;20125;-56
2021/05/08 04:35:23;;;;;;;2.38;1.88;;;8.60;60.60;;;;;;10183315;27;20158;-54
2021/05/08 04:40:13;;;;;;;3.13;2.25;;;8.60;60.80;;;;;;10178919;27;20407;-54
2021/05/08 04:45:06;;;;;;;6.68;2.20;;;8.60;60.80;;;;;;10184106;27;20047;-58
2021/05/08 04:49:59;;;;;;;2.58;1.55;;;8.80;60.60;;;;;;10176931;27;20059;-57
2021/05/08 04:54:49;;;;;;;3.15;1.48;;;8.90;60.80;;;;;;10169323;27;20273;-56
2021/05/08 04:59:40;;;;;;;2.42;1.25;;;9.10;60.40;;;;;;10180482;27;20289;-56
2021/05/08 05:04:31;;;;;;;4.03;1.90;;;9.10;60.50;;;;;;10148520;27;20035;-57
2021/05/08 05:09:23;;;;;;;2.63;1.52;;;9.30;60.40;;;;;;10173916;27;20041;-57
2021/05/08 05:14:14;;;;;;;3.67;1.52;;;9.30;60.20;;;;;;10176603;27;20487;-58
2021/05/08 05:19:05;;;;;;;1.77;1.30;;;9.40;60.10;;;;;;10172750;27;20027;-55
2021/05/08 05:23:55;;;;;;;2.10;1.58;;;9.60;59.90;;;;;;10181398;27;20536;-58
2021/05/08 05:28:46;;;;;;;2.88;1.45;;;9.60;60.00;;;;;;10181952;27;20096;-57
2021/05/08 05:33:37;;;;;;;2.28;1.40;;;9.70;59.90;;;;;;10175085;27;20039;-57
2021/05/08 05:38:28;;;;;;;1.60;1.20;;;9.70;59.90;;;;;;10173987;27;20028;-56
2021/05/08 05:43:19;;;;;;;1.92;1.40;;;9.80;59.70;;;;;;10178672;27;20119;-57
2021/05/08 05:48:10;;;;;;;3.30;1.63;;;9.70;59.50;;;;;;10168297;27;20592;-59
2021/05/08 05:53:01;;;;;;;2.20;1.45;;;9.70;59.40;;;;;;10170931;27;20031;-54
2021/05/08 05:57:55;;;;;;;1.92;1.30;;;9.90;59.60;;;;;;10154267;27;20484;-60
2021/05/08 06:02:46;;;;;;;4.07;2.33;;;9.90;59.10;;;;;;10159490;27;20062;-54
2021/05/08 06:07:38;;;;;;;2.78;1.80;;;9.90;59.00;;;;;;10169990;27;20054;-55
2021/05/08 06:12:29;;;;;;;5.80;1.75;;;9.90;59.00;;;;;;10157014;27;20039;-56
2021/05/08 06:17:20;;;;;;;1.80;1.30;;;9.80;58.90;;;;;;10169740;27;20027;-58
2021/05/08 06:22:11;;;;;;;2.83;1.60;;;9.80;58.70;;;;;;10171214;27;20168;-54
2021/05/08 06:27:02;;;;;;;3.00;1.73;;;9.90;58.70;;;;;;10164377;28;20039;-58
2021/05/08 06:31:53;;;;;;;2.97;1.95;;;9.90;59.00;;;;;;10175259;28;20038;-60
2021/05/08 06:36:45;;;;;;;1.65;1.40;;;10.10;58.50;;;;;;10171379;28;20485;-56
2021/05/08 06:41:36;;;;;;;2.15;1.60;;;10.30;58.30;;;;;;10174626;28;20219;-62
2021/05/08 06:46:26;;;;;;;3.20;1.70;;;10.50;58.00;;;;;;10174014;28;21595;-55
2021/05/08 06:51:17;;;;;;;2.35;1.60;;;10.70;57.90;;;;;;10175710;28;20031;-60
2021/05/08 06:56:08;;;;;;;2.78;1.25;;;10.80;57.80;;;;;;10171998;28;20149;-58
2021/05/08 07:01:01;;;;;;;2.10;1.48;;;11.00;57.60;;;;;;10174181;28;20058;-55
2021/05/08 07:05:51;;;;;;;2.95;1.45;;;11.10;57.50;;;;;;10152352;28;20163;-53
2021/05/08 07:10:47;;;;;;;2.33;1.27;;;11.20;57.20;;;;;;10174048;28;20028;-58
2021/05/08 07:15:37;;;;;;;2.92;1.67;;;11.10;57.40;;;;;;10166662;28;20126;-57
2021/05/08 07:20:28;;;;;;;2.20;1.30;;;11.10;57.40;;;;;;10172650;28;20035;-55
2021/05/08 07:25:19;;;;;;;4.30;1.40;;;11.20;57.60;;;;;;10182888;27;20100;-59
2021/05/08 07:30:11;;;;;;;1.23;0.98;;;11.20;56.60;;;;;;10183691;27;20039;-58
2021/05/08 07:35:01;;;;;;;2.08;1.35;;;11.20;56.50;;;;;;10175791;27;20601;-60
2021/05/08 07:39:52;;;;;;;2.40;1.27;;;11.40;56.10;;;;;;10172562;27;20032;-60
2021/05/08 07:44:43;;;;;;;2.42;1.25;;;11.50;55.80;;;;;;10176490;27;20039;-58
2021/05/08 07:49:34;;;;;;;2.15;1.33;;;11.70;55.40;;;;;;10179857;27;20046;-59
2021/05/08 07:54:24;;;;;;;3.63;1.13;;;11.80;55.00;;;;;;10170411;27;20028;-61
2021/05/08 07:59:15;;;;;;;1.65;1.23;;;12.00;54.80;;;;;;10187331;27;20027;-58
2021/05/08 08:04:06;;;;;;;1.77;1.30;;;12.20;54.70;;;;;;10181276;27;20431;-58
2021/05/08 08:08:57;;;;;;;1.42;1.15;;;12.50;54.30;;;;;;10173652;27;20045;-60
2021/05/08 08:13:48;;;;;;;1.83;1.42;;;12.70;53.90;;;;;;10165029;27;20425;-58
2021/05/08 08:18:39;;;;;;;2.58;1.40;;;12.80;53.90;;;;;;10181596;27;20035;-59
2021/05/08 08:23:30;;;;;;;2.45;1.35;;;12.70;53.70;;;;;;10178735;27;20031;-59
2021/05/08 08:28:21;;;;;;;2.38;1.48;;;12.80;53.70;;;;;;10167611;27;21713;-60
2021/05/08 08:33:12;;;;;;;2.30;1.83;;;13.00;53.40;;;;;;10175425;27;20457;-60
2021/05/08 08:38:03;;;;;;;3.20;1.48;;;13.20;53.00;;;;;;10183162;27;20038;-59
2021/05/08 08:42:54;;;;;;;2.00;1.25;;;13.40;52.70;;;;;;10172258;27;20097;-57
2021/05/08 08:47:45;;;;;;;1.30;1.00;;;13.70;52.30;;;;;;10178742;27;20056;-58
2021/05/08 08:52:36;;;;;;;3.60;1.08;;;13.80;51.70;;;;;;10183112;27;20031;-58
2021/05/08 08:57:41;;;;;;;3.13;1.40;;;14.00;51.20;;;;;;10173186;27;20755;-59
2021/05/08 09:02:32;;;;;;;1.40;1.10;;;14.10;50.90;;;;;;10183440;27;20081;-60
2021/05/08 09:07:27;;;;;;;2.28;1.20;;;14.30;50.40;;;;;;10183851;27;20418;-59
2021/05/08 09:12:19;;;;;;;1.58;1.02;;;14.40;50.20;;;;;;10182356;27;20043;-60
2021/05/08 09:17:14;;;;;;;3.72;1.17;;;14.50;49.90;;;;;;10176604;27;20671;-60
2021/05/08 09:22:26;;;;;;;1.45;1.23;;;14.70;49.60;;;;;;10169404;27;21218;-60
2021/05/08 09:27:35;;;;;;;1.38;0.73;;;14.90;48.60;;;;;;10178930;27;20088;-59
2021/05/08 09:32:26;;;;;;;2.20;0.85;;;15.30;47.50;;;;;;10179172;27;20039;-59
2021/05/08 09:37:18;;;;;;;2.05;1.27;;;15.60;47.30;;;;;;10171749;27;20023;-60
2021/05/08 09:42:09;;;;;;;1.88;1.13;;;16.00;47.00;;;;;;10179094;27;20036;-59
2021/05/08 09:47:00;;;;;;;1.95;1.00;;;16.30;46.60;;;;;;10166998;27;20095;-60
2021/05/08 09:51:59;;;;;;;1.42;0.93;;;16.40;46.30;;;;;;10178677;27;20024;-59
2021/05/08 09:56:50;;;;;;;2.15;0.85;;;16.30;45.60;;;;;;10181449;27;20525;-59
2021/05/08 10:01:41;;;;;;;1.30;0.90;;;16.40;45.80;;;;;;10173821;27;20123;-60
2021/05/08 10:06:32;;;;;;;1.85;1.05;;;16.40;45.50;;;;;;10182075;27;20413;-60
2021/05/08 10:11:23;;;;;;;2.13;1.23;;;16.30;45.10;;;;;;10179615;27;20066;-59
2021/05/08 10:16:14;;;;;;;3.22;1.80;;;16.60;44.80;;;;;;10170465;27;20051;-59
2021/05/08 10:21:07;;;;;;;1.77;1.00;;;16.70;44.60;;;;;;10172838;27;20075;-60
2021/05/08 10:26:02;;;;;;;2.40;1.00;;;17.30;44.10;;;;;;10168280;27;20150;-60
2021/05/08 10:30:53;;;;;;;1.30;1.10;;;17.50;43.70;;;;;;10177002;28;20109;-57
2021/05/08 10:35:49;;;;;;;2.22;1.00;;;17.70;43.50;;;;;;10175673;28;20080;-60
2021/05/08 10:40:49;;;;;;;2.70;0.93;;;17.80;43.70;;;;;;10173944;28;20258;-58
2021/05/08 10:45:40;;;;;;;3.58;1.00;;;18.40;42.70;;;;;;10172026;28;20271;-59
2021/05/08 10:50:37;;;;;;;1.20;0.68;;;18.80;42.80;;;;;;10174837;28;20532;-59
2021/05/08 10:55:42;;;;;;;1.05;0.63;;;19.10;42.30;;;;;;10172963;27;20035;-59
2021/05/08 11:00:47;;;;;;;1.15;0.85;;;18.90;41.60;;;;;;10189235;27;20043;-58
2021/05/08 11:05:56;;;;;;;1.48;1.23;;;18.70;42.20;;;;;;10183211;27;20580;-59
2021/05/08 11:10:55;;;;;;;2.35;0.80;;;18.40;42.20;;;;;;10182808;27;20524;-59
2021/05/08 11:15:51;;;;;;;1.48;0.63;;;18.40;41.90;;;;;;10175837;27;20182;-59
2021/05/08 11:20:48;;;;;;;1.10;1.00;;;18.40;41.80;;;;;;10151676;27;20176;-61
2021/05/08 11:25:39;;;;;;;1.00;0.60;;;18.60;41.60;;;;;;10179076;27;20108;-59
2021/05/08 11:30:30;;;;;;;2.88;0.80;;;18.50;41.60;;;;;;10172454;27;20147;-60
2021/05/08 11:35:27;;;;;;;1.63;0.70;;;18.30;41.60;;;;;;10179881;27;20035;-59
2021/05/08 11:40:30;;;;;;;2.10;1.10;;;18.00;41.70;;;;;;10156552;27;20440;-59
2021/05/08 11:45:21;;;;;;;1.30;0.80;;;17.90;41.60;;;;;;10183678;27;20108;-59
2021/05/08 11:50:17;;;;;;;2.13;1.27;;;17.80;41.60;;;;;;10180604;27;20031;-59
2021/05/08 11:55:16;;;;;;;0.88;0.73;;;17.60;41.70;;;;;;10182750;27;20509;-60
2021/05/08 12:00:35;;;;;;;1.80;0.82;;;17.50;41.70;;;;;;10160625;27;20570;-61
2021/05/08 12:05:38;;;;;;;1.88;0.70;;;17.40;41.10;;;;;;10176376;27;20055;-59
2021/05/08 12:10:33;;;;;;;4.72;1.15;;;17.30;41.50;;;;;;10182048;27;20036;-59
2021/05/08 12:15:30;;;;;;;2.15;1.00;;;17.50;41.70;;;;;;10162518;27;20058;-59
2021/05/08 12:20:23;;;;;;;1.38;0.98;;;17.50;41.50;;;;;;10183156;27;20424;-60
2021/05/08 12:25:22;;;;;;;1.10;0.80;;;17.50;41.70;;;;;;10175713;27;20054;-59
2021/05/08 12:30:14;;;;;;;2.67;1.33;;;17.70;41.50;;;;;;10183917;27;20046;-59
2021/05/08 12:35:14;;;;;;;1.70;1.00;;;17.80;41.60;;;;;;10180046;27;20455;-59
2021/05/08 12:40:06;;;;;;;1.10;1.00;;;18.20;41.20;;;;;;10174799;27;20043;-61
2021/05/08 12:45:01;;;;;;;1.50;1.20;;;18.40;41.10;;;;;;10164057;27;20251;-60
2021/05/08 12:50:10;;;;;;;2.08;1.10;;;18.60;41.00;;;;;;10128012;28;20032;-60
2021/05/08 12:55:02;;;;;;;1.17;0.98;;;19.10;40.80;;;;;;10117799;28;20044;-59
2021/05/08 13:00:10;;;;;;;1.02;0.77;;;19.10;40.90;;;;;;10132108;28;20028;-59
2021/05/08 13:05:12;;;;;;;2.13;0.98;;;19.20;41.10;;;;;;10134254;28;20036;-59
2021/05/08 13:10:41;;;;;;;3.03;1.55;;;19.30;41.10;;;;;;10127146;28;20561;-60
2021/05/08 13:15:33;;;;;;;3.08;1.10;;;19.60;41.20;;;;;;10126844;28;20076;-59
2021/05/08 13:20:32;;;;;;;1.40;1.00;;;20.00;40.90;;;;;;10108656;28;20659;-59
2021/05/08 13:25:22;;;;;;;2.08;1.05;;;20.40;40.50;;;;;;10143971;28;20051;-58
2021/05/08 13:30:16;;;;;;;2.47;1.35;;;21.50;39.80;;;;;;10134989;28;20456;-60
2021/05/08 13:35:08;;;;;;;1.50;0.80;;;21.80;39.30;;;;;;10130199;28;21055;-60
2021/05/08 13:39:59;;;;;;;0.80;0.60;;;22.10;38.90;;;;;;10127692;28;20036;-59
2021/05/08 13:44:49;;;;;;;0.70;0.70;;;22.80;38.30;;;;;;10119760;28;20642;-61
2021/05/08 13:49:40;;;;;;;1.35;0.60;;;25.20;35.80;;;;;;10184256;28;20525;-60
2021/05/08 13:54:31;;;;;;;1.05;0.82;;;24.00;36.40;;;;;;10175819;28;20031;-60
2021/05/08 13:59:22;;;;;;;1.95;0.93;;;23.50;36.70;;;;;;10191418;28;20449;-59
2021/05/08 14:04:12;;;;;;;1.23;1.05;;;23.10;37.00;;;;;;10165662;28;20128;-59
2021/05/08 14:09:04;;;;;;;1.60;0.95;;;22.30;37.60;;;;;;10158086;28;20035;-60
2021/05/08 14:13:54;;;;;;;1.48;0.98;;;21.40;38.30;;;;;;10171547;28;20536;-58
2021/05/08 14:18:46;;;;;;;4.75;2.75;;;20.90;38.70;;;;;;10172775;28;20878;-60
2021/05/08 14:23:37;;;;;;;1.48;0.90;;;20.50;39.40;;;;;;10169128;28;20032;-58
2021/05/08 14:28:27;;;;;;;1.25;1.10;;;20.80;38.70;;;;;;10178005;28;20540;-60
2021/05/08 14:33:18;;;;;;;2.38;0.90;;;21.00;38.40;;;;;;10170938;28;20272;-59
2021/05/08 14:38:09;;;;;;;1.30;0.80;;;21.40;37.90;;;;;;10181053;28;20035;-59
2021/05/08 14:43:00;;;;;;;6.72;1.10;;;21.80;38.50;;;;;;10160706;28;20038;-59
2021/05/08 14:47:50;;;;;;;1.30;0.73;;;22.10;37.40;;;;;;10141009;28;683216;-58
2021/05/08 14:52:42;;;;;;;2.20;1.42;;;22.80;37.00;;;;;;10159431;28;21406;-60
2021/05/08 14:57:33;;;;;;;1.05;0.93;;;23.00;37.00;;;;;;10186293;28;20504;-60
2021/05/08 15:02:24;;;;;;;1.30;1.10;;;22.10;38.20;;;;;;10165359;28;20502;-59
2021/05/08 15:07:15;;;;;;;0.93;0.75;;;21.40;39.00;;;;;;10158540;28;20096;-62
2021/05/08 15:12:06;;;;;;;2.20;1.30;;;20.90;40.40;;;;;;10165409;28;20501;-59
2021/05/08 15:16:57;;;;;;;3.05;1.15;;;21.30;39.20;;;;;;10165920;28;20034;-58
2021/05/08 15:21:47;;;;;;;2.70;1.10;;;22.20;38.20;;;;;;10165552;28;20032;-59
2021/05/08 15:26:39;;;;;;;1.40;1.05;;;23.90;36.70;;;;;;10175527;28;20147;-59
2021/05/08 15:31:30;;;;;;;1.02;0.90;;;25.50;35.50;;;;;;10166810;28;20309;-60
2021/05/08 15:36:21;;;;;;;1.83;0.88;;;26.40;34.70;;;;;;10184111;28;20032;-61
2021/05/08 15:41:12;;;;;;;1.08;0.90;;;24.30;36.90;;;;;;10177925;28;20061;-62
2021/05/08 15:46:03;;;;;;;1.65;1.02;;;23.50;37.30;;;;;;10184172;27;20474;-61
2021/05/08 15:50:54;;;;;;;1.50;0.80;;;25.70;35.10;;;;;;10153741;27;20031;-61
2021/05/08 15:55:46;;;;;;;1.02;0.90;;;27.70;33.40;;;;;;10184284;27;20043;-61
2021/05/08 16:00:36;;;;;;;1.30;0.90;;;29.60;31.30;;;;;;10172533;27;20158;-61
2021/05/08 16:05:27;;;;;;;2.80;1.20;;;30.60;30.60;;;;;;10179657;27;20046;-58
2021/05/08 16:10:23;;;;;;;0.98;0.68;;;32.10;29.50;;;;;;10177054;27;20028;-58
2021/05/08 16:15:14;;;;;;;1.55;1.00;;;32.30;29.10;;;;;;10180509;27;20070;-59
2021/05/08 16:20:06;;;;;;;1.45;1.17;;;33.20;28.40;;;;;;10176584;27;20280;-59
2021/05/08 16:24:56;;;;;;;0.88;0.77;;;33.10;28.40;;;;;;10173690;27;20046;-59
2021/05/08 16:29:47;;;;;;;1.20;0.70;;;31.90;28.60;;;;;;10150128;27;20024;-58
2021/05/08 16:34:38;;;;;;;1.38;0.93;;;32.70;28.00;;;;;;10170293;27;20564;-59
2021/05/08 16:39:29;;;;;;;3.55;0.80;;;33.20;28.00;;;;;;10179958;27;20032;-59
2021/05/08 16:44:19;;;;;;;2.55;1.00;;;33.90;27.00;;;;;;10184281;27;20457;-61
2021/05/08 16:49:10;;;;;;;1.40;1.10;;;34.20;26.50;;;;;;10122864;28;20066;-63
2021/05/08 16:54:02;;;;;;;1.00;0.80;;;34.10;26.50;;;;;;10149632;27;20033;-64
2021/05/08 16:58:53;;;;;;;2.42;1.30;;;34.70;25.90;;;;;;10122468;28;21636;-59
2021/05/08 17:03:43;;;;;;;1.30;1.10;;;35.60;25.50;;;;;;10120335;28;20048;-60
2021/05/08 17:08:37;;;;;;;2.07;1.10;;;36.30;25.30;;;;;;10119228;28;20035;-57
2021/05/08 17:13:27;;;;;;;1.85;1.13;;;36.00;24.80;;;;;;10120494;28;20568;-58
2021/05/08 17:18:18;;;;;;;1.57;1.03;;;35.60;25.00;;;;;;10120858;28;20337;-65
2021/05/08 17:23:09;;;;;;;1.63;1.10;;;35.00;25.20;;;;;;10121867;28;20040;-61
2021/05/08 17:28:00;;;;;;;1.20;0.90;;;34.40;25.50;;;;;;10116584;28;21435;-61
2021/05/08 17:32:51;;;;;;;2.45;1.30;;;30.90;27.10;;;;;;10118575;28;20035;-59
2021/05/08 17:37:42;;;;;;;0.98;0.77;;;26.50;30.20;;;;;;10116884;28;20044;-60
2021/05/08 17:42:33;;;;;;;2.50;1.60;;;24.70;31.30;;;;;;10107788;28;20445;-58
2021/05/08 17:47:24;;;;;;;2.50;1.17;;;23.80;31.60;;;;;;10120082;28;20565;-60
2021/05/08 17:52:15;;;;;;;3.17;2.22;;;23.10;32.10;;;;;;10107936;28;20422;-59
2021/05/08 17:57:05;;;;;;;1.70;1.10;;;22.80;32.60;;;;;;10114723;28;20044;-60
2021/05/08 18:02:02;;;;;;;2.00;1.60;;;22.40;33.00;;;;;;10101017;28;20056;-51
2021/05/08 18:06:53;;;;;;;3.35;1.83;;;22.20;33.50;;;;;;10110605;28;20032;-56
2021/05/08 18:11:44;;;;;;;3.58;1.88;;;22.00;34.00;;;;;;10124062;28;20629;-54
2021/05/08 18:16:35;;;;;;;3.55;1.55;;;21.90;34.50;;;;;;10104481;28;20036;-55
2021/05/08 18:21:27;;;;;;;2.17;1.63;;;21.70;34.90;;;;;;10109519;28;20455;-57
2021/05/08 18:26:17;;;;;;;2.30;1.65;;;21.50;35.40;;;;;;10119345;28;20433;-54
2021/05/08 18:31:09;;;;;;;3.85;1.95;;;21.40;36.70;;;;;;10122636;28;20032;-50
2021/05/08 18:36:00;;;;;;;6.63;3.85;;;21.20;36.50;;;;;;10119303;28;20044;-56
2021/05/08 18:40:52;;;;;;;6.88;3.22;;;21.10;37.10;;;;;;10114265;28;20040;-57
2021/05/08 18:45:42;;;;;;;7.13;2.67;;;20.90;37.60;;;;;;10119799;28;20173;-52
2021/05/08 18:50:33;;;;;;;3.47;1.60;;;20.70;38.10;;;;;;10183521;28;20237;-54
2021/05/08 18:55:24;;;;;;;2.47;1.58;;;20.60;38.60;;;;;;10164085;28;20040;-60
2021/05/08 19:00:15;;;;;;;8.20;4.18;;;20.50;38.90;;;;;;10169619;28;20076;-54
2021/05/08 19:05:07;;;;;;;7.80;3.95;;;20.40;39.10;;;;;;10169235;28;20528;-55
2021/05/08 19:09:57;;;;;;;5.28;2.90;;;20.30;39.40;;;;;;10172395;28;20046;-56
2021/05/08 19:14:48;;;;;;;4.80;2.78;;;20.20;39.70;;;;;;10164282;28;20046;-56
2021/05/08 19:19:39;;;;;;;5.88;2.95;;;20.10;40.00;;;;;;10170938;27;20861;-61
2021/05/08 19:24:30;;;;;;;8.80;5.03;;;20.10;40.20;;;;;;10176476;27;20036;-56
2021/05/08 19:29:21;;;;;;;15.10;5.03;;;19.90;40.70;;;;;;10171523;27;20532;-57
2021/05/08 19:34:12;;;;;;;6.97;3.95;;;19.80;41.10;;;;;;10182504;27;20134;-59
2021/05/08 19:39:04;;;;;;;4.70;2.60;;;19.70;41.20;;;;;;10183085;27;20559;-62
2021/05/08 19:43:55;;;;;;;4.15;2.67;;;19.60;41.50;;;;;;10176493;27;20023;-62
2021/05/08 19:48:45;;;;;;;5.70;2.70;;;19.60;41.80;;;;;;10168823;27;20078;-60
2021/05/08 19:53:36;;;;;;;4.00;1.90;;;19.50;42.00;;;;;;10173451;27;20529;-69
2021/05/08 19:58:28;;;;;;;3.92;2.20;;;19.40;42.30;;;;;;10178895;27;20551;-58
2021/05/08 20:03:19;;;;;;;3.15;1.95;;;19.30;42.70;;;;;;10176778;27;20039;-59
2021/05/08 20:08:10;;;;;;;2.72;1.90;;;19.20;43.10;;;;;;10177727;27;20431;-66
2021/05/08 20:13:01;;;;;;;4.20;2.65;;;19.10;43.30;;;;;;10174747;27;23103;-61
2021/05/08 20:17:52;;;;;;;3.42;2.22;;;19.00;43.40;;;;;;10187452;27;20043;-60
2021/05/08 20:22:43;;;;;;;4.88;2.65;;;19.00;43.70;;;;;;10179598;27;20023;-60
2021/05/08 20:27:34;;;;;;;4.00;2.90;;;18.90;44.00;;;;;;10187224;27;20541;-59
2021/05/08 20:32:25;;;;;;;3.75;2.75;;;18.80;44.20;;;;;;10178832;27;20024;-63
2021/05/08 20:37:17;;;;;;;3.72;2.90;;;18.80;44.40;;;;;;10177166;27;20061;-61
2021/05/08 20:42:08;;;;;;;4.90;2.95;;;18.70;44.50;;;;;;10167409;27;20042;-59
2021/05/08 20:46:59;;;;;;;4.75;2.88;;;18.60;44.80;;;;;;10168769;27;20429;-61
2021/05/08 20:51:50;;;;;;;5.00;3.25;;;18.50;45.10;;;;;;10187282;27;20100;-61
2021/05/08 20:56:43;;;;;;;5.57;3.47;;;18.40;45.50;;;;;;10171943;27;20044;-60
2021/05/08 21:01:34;;;;;;;6.90;4.03;;;18.40;45.70;;;;;;10174375;27;20043;-60
2021/05/08 21:06:25;;;;;;;7.63;4.05;;;18.20;45.90;;;;;;10178540;27;20066;-59
2021/05/08 21:11:16;;;;;;;8.27;4.68;;;18.10;46.20;;;;;;10176709;27;20024;-61
2021/05/08 21:16:06;;;;;;;4.97;3.38;;;18.10;46.50;;;;;;10166554;27;20548;-59
2021/05/08 21:20:57;;;;;;;6.63;4.57;;;17.90;46.90;;;;;;10172816;27;21375;-58
2021/05/08 21:25:48;;;;;;;7.50;3.60;;;17.90;47.10;;;;;;10176891;27;20493;-60
2021/05/08 21:30:39;;;;;;;8.52;4.07;;;17.80;47.20;;;;;;10180412;27;20039;-59
2021/05/08 21:35:30;;;;;;;9.32;3.88;;;17.80;47.60;;;;;;10165185;27;20046;-61
2021/05/08 21:40:21;;;;;;;5.85;3.20;;;17.60;48.10;;;;;;10172712;27;20026;-60
2021/05/08 21:45:13;;;;;;;5.55;3.80;;;17.50;48.40;;;;;;10168067;27;20040;-60
2021/05/08 21:50:04;;;;;;;8.68;4.85;;;17.40;48.70;;;;;;10168254;27;20078;-60
2021/05/08 21:54:55;;;;;;;8.63;4.28;;;17.40;49.00;;;;;;10172418;27;20370;-61
2021/05/08 21:59:46;;;;;;;5.05;3.55;;;17.20;49.40;;;;;;10172954;27;20443;-60
2021/05/08 22:04:37;;;;;;;7.07;3.28;;;17.10;49.70;;;;;;10168294;27;20048;-59
2021/05/08 22:09:28;;;;;;;3.58;2.97;;;17.20;49.90;;;;;;10170579;27;20039;-60
2021/05/08 22:14:19;;;;;;;5.47;3.08;;;17.10;50.20;;;;;;10145632;27;20139;-60
2021/05/08 22:19:12;;;;;;;3.42;2.40;;;17.00;50.50;;;;;;10183281;27;20535;-63
2021/05/08 22:24:03;;;;;;;6.40;2.63;;;17.10;50.60;;;;;;10170140;27;20197;-60
2021/05/08 22:28:53;;;;;;;4.05;2.90;;;17.00;50.80;;;;;;10173777;27;20019;-60
2021/05/08 22:33:44;;;;;;;3.28;2.35;;;16.90;51.00;;;;;;10169277;28;20083;-60
2021/05/08 22:38:35;;;;;;;5.45;3.13;;;16.90;51.70;;;;;;10172044;28;20119;-60
2021/05/08 22:43:26;;;;;;;4.82;2.97;;;16.70;51.90;;;;;;10159933;28;20043;-61
2021/05/08 22:48:17;;;;;;;6.05;3.42;;;16.70;52.10;;;;;;10172549;28;20040;-57
2021/05/08 22:53:07;;;;;;;6.20;3.25;;;16.60;52.30;;;;;;10172441;27;20032;-59
2021/05/08 22:58:02;;;;;;;4.75;3.17;;;16.60;52.60;;;;;;10181410;27;20069;-60
2021/05/08 23:02:53;;;;;;;5.68;3.10;;;16.60;52.80;;;;;;10181256;27;20043;-61
2021/05/08 23:07:45;;;;;;;4.28;3.40;;;16.50;53.30;;;;;;10173839;27;20397;-60
2021/05/08 23:12:36;;;;;;;5.07;3.40;;;16.50;53.30;;;;;;10177702;27;20054;-60
2021/05/08 23:17:27;;;;;;;5.05;2.90;;;16.50;53.50;;;;;;10182317;27;20040;-61
2021/05/08 23:22:17;;;;;;;5.03;3.20;;;16.40;53.80;;;;;;10180300;27;20378;-60
2021/05/08 23:27:08;;;;;;;4.25;3.15;;;16.40;54.00;;;;;;10176863;27;20119;-61
2021/05/08 23:32:00;;;;;;;6.15;2.75;;;16.40;54.20;;;;;;10179835;27;20038;-60
2021/05/08 23:36:50;;;;;;;5.20;3.03;;;16.30;54.40;;;;;;10199494;27;20130;-56
2021/05/08 23:41:41;;;;;;;6.00;3.33;;;16.30;54.60;;;;;;10198873;27;20104;-59
2021/05/08 23:46:32;;;;;;;8.52;3.95;;;16.20;55.10;;;;;;10197646;27;20584;-58
2021/05/08 23:51:23;;;;;;;5.22;3.85;;;16.10;55.10;;;;;;10194853;27;21341;-57
2021/05/08 23:56:14;;;;;;;4.80;2.97;;;16.10;55.50;;;;;;10199109;27;20075;-57
